Iberville, Louisiana
Current Conditions -  °F | °C
As of 6:55 AM on Thursday 23 Oct 2014 (Local Time) from KL38 Reporting Station
Clear Clear  
Wind Chill: 52°   Ceiling: Unl
Heat Index: 52°   Visibility: 10mi
Dew Point: 50°   Wind: 3mph
Humidity: 92%   Direction: 20°NNE
Pressure: 30.08"   Gusts: NA
Location:  30.2802°N, 91.0796°W
Report Text: KL38 231155Z AUTO 02003KT 10SM CLR 11/10 A3008 RMK AO2 T01120100 10155 20111
Loading
Personal Weather Stations






























Interactive Weather Map
Tropical Storm Tracking
New forecast layout! Learn more

10-Day Weather Forecast

Advertisements
Track Severe Weather on mobile